createdAt,value
2022-08-29T00:01:21.696Z,999.90
2022-08-29T00:03:50.653Z,875.03
2022-08-29T00:06:19.601Z,999.90
2022-08-29T00:08:47.268Z,700.43
2022-08-29T00:11:14.958Z,875.50
2022-08-29T00:13:42.787Z,999.90
2022-08-29T00:16:10.699Z,999.90
2022-08-29T00:18:38.441Z,916.43
2022-08-29T00:21:06.921Z,868.97
2022-08-29T00:23:35.849Z,999.90
2022-08-29T00:26:03.483Z,808.50
2022-08-29T00:28:31.127Z,966.87
2022-08-29T00:30:58.715Z,961.27
2022-08-29T00:33:26.341Z,891.20
2022-08-29T00:35:53.979Z,999.90
2022-08-29T00:38:27.780Z,967.17
2022-08-29T00:40:58.688Z,844.97
2022-08-29T00:43:28.747Z,999.90
2022-08-29T00:46:03.463Z,976.03
2022-08-29T00:48:31.183Z,939.77
2022-08-29T00:51:02.943Z,959.93
2022-08-29T00:53:32.990Z,999.90
2022-08-29T00:56:02.198Z,999.90
2022-08-29T00:58:33.266Z,845.23
2022-08-29T01:01:00.889Z,999.90
2022-08-29T01:03:31.497Z,921.23
2022-08-29T01:05:59.093Z,902.60
2022-08-29T01:08:26.715Z,888.60
2022-08-29T01:11:11.946Z,935.33
2022-08-29T01:13:43.230Z,946.63
2022-08-29T01:16:12.703Z,945.43
2022-08-29T01:18:42.254Z,968.43
2022-08-29T01:21:15.819Z,999.90
2022-08-29T01:23:46.165Z,966.83
2022-08-29T01:26:15.108Z,799.43
2022-08-29T01:28:44.812Z,999.90
2022-08-29T01:31:15.237Z,841.10
2022-08-29T01:34:02.926Z,974.10
2022-08-29T01:36:37.507Z,999.90
2022-08-29T01:39:05.468Z,982.67
2022-08-29T01:41:35.439Z,965.23
2022-08-29T01:44:09.832Z,958.57
2022-08-29T01:46:37.724Z,999.90
2022-08-29T01:49:07.781Z,784.00
2022-08-29T01:51:35.952Z,975.47
2022-08-29T01:54:05.944Z,853.10
2022-08-29T01:56:36.910Z,938.17
2022-08-29T01:59:07.163Z,999.90
2022-08-29T02:01:36.405Z,968.77
2022-08-29T02:04:05.714Z,999.90
2022-08-29T02:06:33.419Z,983.97
2022-08-29T02:09:01.324Z,966.97
2022-08-29T02:11:29.134Z,999.90
2022-08-29T02:13:59.785Z,992.77
2022-08-29T02:16:28.761Z,999.90
2022-08-29T02:18:56.594Z,878.87
2022-08-29T02:21:26.078Z,983.13
2022-08-29T02:23:55.232Z,999.90
2022-08-29T02:26:23.222Z,999.90
2022-08-29T02:28:51.807Z,978.07
2022-08-29T02:31:21.598Z,999.90
2022-08-29T02:33:49.665Z,960.27
2022-08-29T02:36:19.264Z,955.90
2022-08-29T02:38:47.387Z,973.40
2022-08-29T02:41:15.039Z,999.90
2022-08-29T02:43:43.299Z,964.83
2022-08-29T02:46:14.595Z,999.90
2022-08-29T02:48:47.594Z,999.90
2022-08-29T02:51:29.935Z,999.90
2022-08-29T02:53:58.017Z,979.53
2022-08-29T02:56:25.638Z,996.33
2022-08-29T02:58:53.247Z,975.70
2022-08-29T03:01:22.924Z,999.90
2022-08-29T03:03:52.529Z,992.23
2022-08-29T03:06:21.139Z,948.93
2022-08-29T03:08:48.790Z,976.47
2022-08-29T03:11:17.141Z,999.90
2022-08-29T03:13:45.122Z,967.33
2022-08-29T03:16:14.152Z,920.47
2022-08-29T03:18:41.884Z,999.90
2022-08-29T03:21:17.451Z,999.90
2022-08-29T03:23:45.062Z,996.00
2022-08-29T03:26:12.675Z,885.80
2022-08-29T03:28:40.302Z,934.50
2022-08-29T03:31:08.271Z,999.90
2022-08-29T03:33:35.903Z,999.90
2022-08-29T03:36:04.082Z,999.90
2022-08-29T03:38:39.268Z,999.90
2022-08-29T03:41:07.755Z,999.90
2022-08-29T03:43:35.782Z,866.80
2022-08-29T03:46:03.491Z,944.03
2022-08-29T03:48:33.196Z,999.90
2022-08-29T03:51:00.883Z,980.17
2022-08-29T03:53:28.571Z,999.90
2022-08-29T03:55:59.790Z,983.93
2022-08-29T03:58:27.456Z,999.90
2022-08-29T04:00:55.081Z,987.57
2022-08-29T04:03:26.517Z,999.90
2022-08-29T04:05:59.567Z,998.57
2022-08-29T04:08:27.507Z,999.90
2022-08-29T04:10:55.117Z,999.90
2022-08-29T04:13:24.283Z,928.63
2022-08-29T04:15:51.921Z,999.90
2022-08-29T04:18:21.390Z,938.40
2022-08-29T04:20:50.717Z,867.60
2022-08-29T04:23:18.311Z,900.00
2022-08-29T04:25:45.946Z,999.90
2022-08-29T04:28:15.083Z,999.90
2022-08-29T04:30:51.368Z,999.90
2022-08-29T04:33:22.471Z,966.80
2022-08-29T04:35:51.333Z,999.90
2022-08-29T04:38:18.999Z,958.77
2022-08-29T04:40:46.858Z,999.90
2022-08-29T04:43:14.806Z,989.47
2022-08-29T04:45:43.438Z,974.00
2022-08-29T04:48:12.412Z,922.07
2022-08-29T04:50:40.214Z,999.90
2022-08-29T04:53:07.848Z,986.97
2022-08-29T04:55:35.479Z,999.90
2022-08-29T04:58:04.156Z,976.67
2022-08-29T05:00:31.969Z,999.90
2022-08-29T05:03:00.072Z,968.30
2022-08-29T05:05:29.111Z,969.50
2022-08-29T05:07:56.750Z,964.83
2022-08-29T05:10:26.224Z,999.90
2022-08-29T05:12:53.879Z,869.37
2022-08-29T05:15:23.965Z,962.60
2022-08-29T05:17:51.895Z,983.90
2022-08-29T05:20:19.503Z,999.90
2022-08-29T05:22:48.538Z,957.63
2022-08-29T05:25:18.454Z,823.13
2022-08-29T05:27:46.640Z,999.90
2022-08-29T05:30:16.353Z,985.50
2022-08-29T05:32:56.810Z,999.90
2022-08-29T05:35:24.584Z,999.90
2022-08-29T05:37:53.566Z,999.90
2022-08-29T05:40:21.642Z,983.73
2022-08-29T05:42:49.529Z,968.53
2022-08-29T05:45:17.499Z,926.67
2022-08-29T05:47:45.158Z,999.90
2022-08-29T05:50:13.656Z,999.90
2022-08-29T05:52:41.787Z,964.57
2022-08-29T05:55:10.936Z,979.17
2022-08-29T05:57:38.747Z,999.90
2022-08-29T06:00:08.516Z,984.97
2022-08-29T06:02:36.327Z,986.00
2022-08-29T06:05:04.647Z,999.90
2022-08-29T06:07:33.086Z,950.97
2022-08-29T06:10:04.037Z,894.27
2022-08-29T06:12:33.568Z,989.17
2022-08-29T06:15:01.203Z,999.90
2022-08-29T06:17:28.899Z,875.37
2022-08-29T06:19:56.525Z,910.43
2022-08-29T06:22:24.163Z,929.60
2022-08-29T06:24:54.874Z,949.67
2022-08-29T06:27:25.225Z,935.67
2022-08-29T06:29:54.326Z,999.90
2022-08-29T06:32:22.023Z,966.27
2022-08-29T06:34:49.681Z,908.30
2022-08-29T06:37:17.321Z,999.90
2022-08-29T06:39:45.019Z,987.60
2022-08-29T06:42:12.699Z,906.77
2022-08-29T06:44:44.416Z,907.73
2022-08-29T06:47:13.611Z,999.90
2022-08-29T06:49:41.296Z,967.13
2022-08-29T06:52:09.248Z,993.37
2022-08-29T06:54:36.847Z,985.03
2022-08-29T06:57:04.659Z,989.37
2022-08-29T06:59:32.464Z,982.27
2022-08-29T07:02:00.176Z,999.90
2022-08-29T07:04:30.128Z,950.77
2022-08-29T07:06:58.352Z,999.90
2022-08-29T07:09:26.523Z,993.03
2022-08-29T07:11:54.775Z,949.37
2022-08-29T07:14:22.408Z,999.90
2022-08-29T07:16:49.988Z,999.90
2022-08-29T07:19:17.651Z,927.33
2022-08-29T07:21:48.596Z,961.47
2022-08-29T07:24:16.211Z,877.07
2022-08-29T07:26:45.332Z,999.90
2022-08-29T07:29:15.662Z,977.13
2022-08-29T07:31:43.725Z,907.27
2022-08-29T07:34:11.635Z,947.10
2022-08-29T07:36:39.338Z,999.90
2022-08-29T07:39:10.113Z,890.47
2022-08-29T07:41:39.626Z,779.87
2022-08-29T07:44:07.282Z,912.80
2022-08-29T07:46:35.105Z,875.63
2022-08-29T07:49:02.764Z,738.10
2022-08-29T07:51:31.032Z,841.10
2022-08-29T07:53:58.846Z,987.80
2022-08-29T07:56:35.842Z,999.90
2022-08-29T07:59:06.452Z,943.83
2022-08-29T08:01:35.300Z,934.33
2022-08-29T08:04:03.023Z,999.90
2022-08-29T08:06:34.457Z,845.10
2022-08-29T08:09:03.703Z,724.73
2022-08-29T08:11:32.983Z,575.87
2022-08-29T08:14:00.623Z,696.10
2022-08-29T08:16:29.252Z,931.50
2022-08-29T08:18:57.335Z,888.17
2022-08-29T08:21:25.911Z,699.77
2022-08-29T08:23:53.804Z,564.33
2022-08-29T08:26:21.982Z,747.03
2022-08-29T08:28:51.148Z,827.23
2022-08-29T08:31:19.380Z,788.97
2022-08-29T08:33:47.892Z,669.80
2022-08-29T08:36:17.903Z,923.73
2022-08-29T08:38:45.798Z,670.03
2022-08-29T08:41:27.462Z,999.90
2022-08-29T08:43:59.093Z,577.30
2022-08-29T08:46:30.227Z,722.00
2022-08-29T08:48:59.135Z,589.80
2022-08-29T08:51:30.267Z,633.63
2022-08-29T08:53:59.298Z,671.87
2022-08-29T08:56:40.165Z,999.90
2022-08-29T08:59:16.148Z,559.60
2022-08-29T09:01:46.829Z,999.90
2022-08-29T09:04:40.000Z,489.97
2022-08-29T09:07:19.152Z,576.63
2022-08-29T09:09:58.664Z,379.23
2022-08-29T09:12:35.007Z,537.10
2022-08-29T09:15:13.340Z,307.83
2022-08-29T09:17:45.551Z,537.23
2022-08-29T09:20:16.902Z,893.60
2022-08-29T09:22:49.800Z,605.43
2022-08-29T09:25:17.459Z,348.63
2022-08-29T09:27:45.327Z,602.80
2022-08-29T09:30:18.129Z,378.40
2022-08-29T09:32:58.896Z,365.57
2022-08-29T09:35:29.076Z,299.60
2022-08-29T09:38:02.434Z,630.30
2022-08-29T09:40:50.685Z,897.37
2022-08-29T09:43:24.951Z,999.90
2022-08-29T09:46:14.605Z,612.83
2022-08-29T09:48:44.314Z,304.60
2022-08-29T09:51:15.788Z,438.43
2022-08-29T09:53:43.607Z,350.30
2022-08-29T09:56:17.560Z,375.70
2022-08-29T09:58:45.279Z,618.03
2022-08-29T10:01:20.165Z,323.57
2022-08-29T10:03:56.399Z,844.67
2022-08-29T10:06:26.296Z,999.90
2022-08-29T10:09:03.280Z,517.40
2022-08-29T10:11:36.010Z,608.17
2022-08-29T10:14:06.889Z,777.37
2022-08-29T10:16:47.205Z,615.70
2022-08-29T10:19:29.960Z,790.50
2022-08-29T10:22:06.843Z,648.97
2022-08-29T10:24:51.930Z,748.70
2022-08-29T10:27:26.479Z,572.23
2022-08-29T10:30:05.082Z,485.40
2022-08-29T10:32:52.295Z,535.30
2022-08-29T10:35:23.075Z,359.20
2022-08-29T10:37:56.414Z,454.43
2022-08-29T10:40:30.587Z,383.53
2022-08-29T10:43:21.159Z,316.13
2022-08-29T10:45:59.895Z,188.93
2022-08-29T10:48:31.671Z,325.53
2022-08-29T10:51:10.551Z,390.10
2022-08-29T10:53:41.732Z,382.93
2022-08-29T10:56:13.051Z,394.20
2022-08-29T10:58:51.474Z,169.23
2022-08-29T11:01:23.842Z,733.20
2022-08-29T11:04:04.268Z,476.70
2022-08-29T11:09:11.997Z,176.17
2022-08-29T11:11:43.037Z,482.73
2022-08-29T11:14:19.439Z,100.03
2022-08-29T11:16:48.712Z,177.23
2022-08-29T11:19:22.759Z,440.37
2022-08-29T11:21:56.683Z,240.33
2022-08-29T11:24:31.725Z,179.60
2022-08-29T11:27:08.401Z,147.23
2022-08-29T11:29:40.432Z,190.07
2022-08-29T11:32:10.937Z,193.87
2022-08-29T11:34:49.230Z,186.63
2022-08-29T11:37:31.415Z,423.10
2022-08-29T11:40:04.279Z,197.23
2022-08-29T11:42:51.194Z,460.80
2022-08-29T11:45:25.593Z,450.23
2022-08-29T11:48:19.504Z,192.93
2022-08-29T11:50:49.330Z,141.37
2022-08-29T11:53:33.617Z,436.23
2022-08-29T11:56:27.769Z,365.60
2022-08-29T11:58:56.743Z,260.93
2022-08-29T12:01:56.452Z,348.63
2022-08-29T12:04:51.548Z,242.77
2022-08-29T12:07:21.615Z,239.23
2022-08-29T12:09:56.449Z,482.57
2022-08-29T12:12:45.050Z,467.57
2022-08-29T12:15:49.975Z,999.90
2022-08-29T12:18:45.571Z,198.00
2022-08-29T12:21:35.839Z,437.33
2022-08-29T12:24:05.214Z,159.10
2022-08-29T12:26:44.805Z,439.23
2022-08-29T12:29:20.203Z,306.83
2022-08-29T12:32:23.436Z,444.23
2022-08-29T12:35:05.635Z,999.90
2022-08-29T12:37:47.602Z,206.60
2022-08-29T12:40:31.016Z,240.33
2022-08-29T12:43:14.016Z,153.53
2022-08-29T12:45:43.620Z,999.90
2022-08-29T12:48:15.462Z,999.90
2022-08-29T12:50:45.313Z,999.90
2022-08-29T12:53:19.956Z,999.90
2022-08-29T12:55:51.356Z,999.90
2022-08-29T12:58:34.004Z,999.90
2022-08-29T13:01:01.963Z,999.90
2022-08-29T13:03:29.555Z,727.90
2022-08-29T13:06:05.207Z,999.90
2022-08-29T13:08:37.038Z,999.90
2022-08-29T13:11:08.969Z,999.90
2022-08-29T13:13:37.031Z,999.90
2022-08-29T13:16:07.662Z,999.90
2022-08-29T13:18:49.119Z,999.90
2022-08-29T13:21:27.862Z,999.90
2022-08-29T13:24:04.007Z,999.90
2022-08-29T13:26:34.159Z,999.90
2022-08-29T13:29:25.321Z,999.90
2022-08-29T13:32:23.587Z,999.90
2022-08-29T13:35:02.149Z,999.90
2022-08-29T13:37:31.999Z,999.90
2022-08-29T13:40:31.385Z,477.73
2022-08-29T13:43:00.723Z,999.90
2022-08-29T13:45:28.408Z,999.90
2022-08-29T13:48:13.150Z,999.90
2022-08-29T13:50:41.325Z,999.90
2022-08-29T13:53:09.060Z,999.90
2022-08-29T13:55:38.299Z,999.90
2022-08-29T13:58:05.943Z,999.90
2022-08-29T14:00:35.493Z,999.90
2022-08-29T14:03:06.992Z,999.90
2022-08-29T14:05:35.522Z,400.17
2022-08-29T14:08:04.031Z,999.90
2022-08-29T14:10:31.651Z,999.90
2022-08-29T14:13:00.803Z,999.90
2022-08-29T14:15:28.454Z,999.90
2022-08-29T14:17:56.167Z,999.90
2022-08-29T14:20:23.925Z,999.90
2022-08-29T14:22:51.853Z,999.90
2022-08-29T14:25:20.710Z,999.90
2022-08-29T14:27:48.876Z,999.90
2022-08-29T14:30:21.026Z,169.23
2022-08-29T14:32:48.832Z,348.87
2022-08-29T14:35:25.872Z,444.23
2022-08-29T14:37:55.563Z,478.67
2022-08-29T14:40:23.895Z,167.50
2022-08-29T14:42:53.483Z,460.57
2022-08-29T14:45:22.576Z,452.80
2022-08-29T14:47:50.212Z,999.90
2022-08-29T14:50:18.140Z,133.00
2022-08-29T14:52:46.935Z,320.33
2022-08-29T14:55:14.664Z,999.90
2022-08-29T14:57:42.756Z,154.90
2022-08-29T15:00:12.941Z,336.57
2022-08-29T15:02:42.479Z,234.73
2022-08-29T15:05:11.532Z,999.90
2022-08-29T15:07:39.234Z,192.33
2022-08-29T15:10:07.784Z,125.83
2022-08-29T15:12:35.504Z,999.90
2022-08-29T15:15:03.523Z,155.43
2022-08-29T15:17:31.183Z,461.17
2022-08-29T15:22:47.696Z,210.90
2022-08-29T15:25:15.314Z,213.50
2022-08-29T15:27:43.111Z,206.30
2022-08-29T15:30:11.879Z,203.77
2022-08-29T15:32:39.554Z,251.93
2022-08-29T15:35:10.318Z,236.63
2022-08-29T15:37:43.320Z,452.60
2022-08-29T15:40:13.637Z,214.30
2022-08-29T15:42:41.596Z,223.90
2022-08-29T15:45:10.675Z,219.30
2022-08-29T15:47:39.476Z,362.90
2022-08-29T15:50:09.757Z,451.00
2022-08-29T15:52:37.838Z,223.70
2022-08-29T15:55:07.115Z,298.03
2022-08-29T15:57:51.098Z,293.50
2022-08-29T16:00:30.525Z,221.40
2022-08-29T16:03:03.147Z,161.80
2022-08-29T16:05:32.868Z,237.63
2022-08-29T16:08:00.827Z,197.50
2022-08-29T16:10:28.486Z,684.87
2022-08-29T16:12:56.315Z,185.17
2022-08-29T16:15:24.205Z,189.63
2022-08-29T16:17:52.506Z,252.67
2022-08-29T16:20:20.323Z,206.17
2022-08-29T16:22:49.645Z,200.33
2022-08-29T16:25:18.003Z,202.83
2022-08-29T16:27:45.794Z,348.17
2022-08-29T16:30:14.174Z,97.57
2022-08-29T16:32:41.816Z,119.10
2022-08-29T16:35:11.395Z,107.73
2022-08-29T16:37:39.447Z,254.30
2022-08-29T16:40:09.822Z,203.53
2022-08-29T16:42:39.146Z,208.03
2022-08-29T16:45:08.580Z,711.83
2022-08-29T16:47:36.852Z,138.80
2022-08-29T16:50:06.230Z,210.43
2022-08-29T16:52:33.910Z,189.47
2022-08-29T16:55:01.514Z,185.57
2022-08-29T16:57:30.572Z,213.07
2022-08-29T16:59:58.473Z,190.53
2022-08-29T17:02:27.050Z,77.37
2022-08-29T17:04:54.757Z,252.50
2022-08-29T17:07:22.198Z,28.40
2022-08-29T17:09:48.733Z,195.03
2022-08-29T17:12:15.240Z,256.90
2022-08-29T17:14:44.269Z,192.40
2022-08-29T17:17:11.910Z,195.33
2022-08-29T17:19:39.684Z,440.90
2022-08-29T17:22:08.143Z,235.50
2022-08-29T17:24:35.846Z,198.37
2022-08-29T17:27:03.481Z,257.67
2022-08-29T17:29:31.258Z,999.90
2022-08-29T17:32:00.800Z,184.03
2022-08-29T17:34:28.385Z,179.20
2022-08-29T17:36:56.014Z,185.40
2022-08-29T17:39:23.578Z,145.93
2022-08-29T17:41:51.972Z,259.57
2022-08-29T17:44:20.003Z,253.50
2022-08-29T17:46:47.641Z,251.10
2022-08-29T17:49:16.674Z,249.43
2022-08-29T17:51:44.696Z,251.80
2022-08-29T17:54:22.312Z,251.30
2022-08-29T17:56:51.310Z,254.20
2022-08-29T17:59:20.651Z,221.57
2022-08-29T18:01:48.619Z,250.73
2022-08-29T18:04:18.665Z,251.83
2022-08-29T18:06:46.990Z,255.27
2022-08-29T18:09:14.987Z,140.30
2022-08-29T18:11:44.279Z,22.10
2022-08-29T18:14:12.844Z,225.50
2022-08-29T18:16:40.606Z,238.77
2022-08-29T18:19:08.768Z,184.97
2022-08-29T18:21:37.724Z,221.23
2022-08-29T18:24:06.536Z,28.93
2022-08-29T18:26:34.428Z,67.27
2022-08-29T18:29:02.055Z,216.93
2022-08-29T18:31:29.760Z,152.43
2022-08-29T18:34:00.684Z,53.47
2022-08-29T18:36:29.285Z,223.77
2022-08-29T18:38:58.762Z,255.13
2022-08-29T18:41:26.655Z,250.57
2022-08-29T18:43:54.316Z,250.70
2022-08-29T18:46:22.104Z,189.33
2022-08-29T18:48:49.790Z,251.43
2022-08-29T18:51:17.450Z,233.57
2022-08-29T18:53:45.231Z,78.57
2022-08-29T18:56:14.703Z,251.57
2022-08-29T18:58:44.204Z,156.50
2022-08-29T19:01:12.846Z,241.17
2022-08-29T19:03:40.599Z,125.33
2022-08-29T19:06:08.380Z,247.17
2022-08-29T19:08:37.101Z,146.37
2022-08-29T19:11:06.610Z,148.97
2022-08-29T19:13:36.080Z,251.50
2022-08-29T19:16:05.526Z,249.67
2022-08-29T19:18:34.044Z,130.53
2022-08-29T19:21:06.151Z,169.63
2022-08-29T19:23:36.287Z,115.13
2022-08-29T19:26:07.600Z,171.47
2022-08-29T19:28:37.051Z,169.40
2022-08-29T19:31:06.310Z,149.77
2022-08-29T19:33:34.984Z,107.13
2022-08-29T19:36:03.873Z,129.93
2022-08-29T19:38:31.542Z,250.87
2022-08-29T19:40:59.713Z,220.60
2022-08-29T19:43:29.002Z,185.37
2022-08-29T19:45:59.153Z,244.70
2022-08-29T19:48:27.362Z,38.73
2022-08-29T19:50:55.400Z,125.43
2022-08-29T19:53:26.820Z,254.93
2022-08-29T19:55:55.915Z,255.67
2022-08-29T19:58:30.964Z,453.23
2022-08-29T20:01:03.293Z,249.13
2022-08-29T20:03:32.071Z,30.10
2022-08-29T20:06:05.563Z,39.93
2022-08-29T20:08:33.294Z,158.33
2022-08-29T20:11:04.549Z,176.77
2022-08-29T20:13:36.101Z,198.57
2022-08-29T20:16:11.973Z,238.20
2022-08-29T20:18:40.314Z,219.73
2022-08-29T20:21:07.959Z,175.77
2022-08-29T20:23:35.560Z,162.87
2022-08-29T20:26:03.505Z,33.07
2022-08-29T20:28:31.413Z,240.83
2022-08-29T20:30:59.220Z,247.93
2022-08-29T20:33:28.634Z,254.10
2022-08-29T20:36:28.394Z,255.43
2022-08-29T20:38:55.995Z,202.93
2022-08-29T20:41:23.929Z,245.60
2022-08-29T20:43:51.567Z,251.83
2022-08-29T20:46:19.194Z,111.47
2022-08-29T20:48:48.185Z,165.30
2022-08-29T20:51:15.771Z,248.03
2022-08-29T20:53:43.697Z,241.33
2022-08-29T20:56:11.298Z,111.50
2022-08-29T20:58:39.278Z,235.37
2022-08-29T21:01:07.054Z,102.90
2022-08-29T21:03:52.816Z,232.20
2022-08-29T21:06:22.248Z,252.93
2022-08-29T21:08:50.143Z,999.90
2022-08-29T21:11:17.754Z,698.73
2022-08-29T21:13:46.571Z,138.87
2022-08-29T21:16:14.334Z,999.90
2022-08-29T21:18:42.045Z,999.90
2022-08-29T21:21:13.119Z,999.90
2022-08-29T21:23:42.303Z,999.90
2022-08-29T21:26:11.625Z,717.17
2022-08-29T21:28:39.629Z,999.90
2022-08-29T21:31:07.911Z,999.90
2022-08-29T21:33:37.510Z,999.90
2022-08-29T21:36:08.267Z,999.90
2022-08-29T21:38:36.095Z,999.90
2022-08-29T21:41:05.399Z,999.90
2022-08-29T21:43:33.072Z,999.90
2022-08-29T21:46:00.674Z,369.97
2022-08-29T21:48:28.722Z,999.90
2022-08-29T21:50:57.298Z,999.90
2022-08-29T21:53:25.179Z,999.90
2022-08-29T21:55:52.899Z,720.10
2022-08-29T21:58:21.904Z,968.50
2022-08-29T22:00:51.002Z,999.90
2022-08-29T22:03:18.825Z,999.90
2022-08-29T22:05:46.650Z,999.90
2022-08-29T22:08:16.391Z,999.90
2022-08-29T22:10:44.623Z,999.90
2022-08-29T22:13:12.273Z,999.90
2022-08-29T22:15:59.009Z,999.90
2022-08-29T22:18:27.179Z,999.90
2022-08-29T22:20:55.796Z,999.90
2022-08-29T22:23:24.750Z,999.90
2022-08-29T22:25:52.552Z,999.90
2022-08-29T22:28:20.200Z,999.90
2022-08-29T22:30:49.346Z,999.90
2022-08-29T22:33:17.050Z,999.90
2022-08-29T22:35:45.716Z,999.90
2022-08-29T22:38:13.324Z,719.47
2022-08-29T22:40:41.178Z,999.90
2022-08-29T22:43:08.864Z,999.90
2022-08-29T22:45:36.512Z,999.90
2022-08-29T22:48:06.212Z,999.90
2022-08-29T22:50:34.366Z,999.90
2022-08-29T22:53:02.027Z,999.90
2022-08-29T22:57:57.810Z,999.90
2022-08-29T23:00:27.432Z,999.90
2022-08-29T23:02:55.554Z,999.90
2022-08-29T23:05:25.078Z,999.90
2022-08-29T23:07:52.987Z,999.90
2022-08-29T23:10:21.981Z,999.90
2022-08-29T23:12:49.715Z,999.90
2022-08-29T23:15:18.959Z,999.90
2022-08-29T23:17:46.785Z,999.90
2022-08-29T23:20:16.848Z,999.90
2022-08-29T23:22:48.808Z,999.90
2022-08-29T23:25:17.805Z,999.90
2022-08-29T23:27:45.567Z,999.90
2022-08-29T23:30:14.452Z,999.90
2022-08-29T23:32:42.296Z,999.90
2022-08-29T23:35:10.426Z,999.90
2022-08-29T23:37:38.099Z,999.90
2022-08-29T23:40:09.449Z,999.90
2022-08-29T23:42:37.127Z,999.90
2022-08-29T23:45:06.717Z,999.90
2022-08-29T23:47:35.995Z,999.90
2022-08-29T23:50:04.634Z,999.90
2022-08-29T23:52:32.337Z,999.90
2022-08-29T23:55:01.474Z,999.90
2022-08-29T23:57:30.475Z,999.90
